Time;durP1;ratioP1;P1;durP2;ratioP2;P2;SDS_P1;SDS_P2;PMS_P1;PMS_P2;Temp;Humidity;BMP_temperature;BMP_pressure;BME280_temperature;BME280_humidity;BME280_pressure;Samples;Min_cycle;Max_cycle;Signal;HPM_P1;HPM_P2
2023/05/08 00:00:37;;;;;;;;;;;14.50;99.90;;;;;;5025804;28;20016;-79
2023/05/08 00:03:04;;;;;;;;;;;14.50;99.90;;;;;;5030540;28;20403;-79
2023/05/08 00:05:32;;;;;;;;;;;14.50;99.90;;;;;;5028295;28;20019;-79
2023/05/08 00:08:00;;;;;;;;;;;14.50;99.90;;;;;;5027572;28;19932;-79
2023/05/08 00:10:27;;;;;;;;;;;14.50;99.90;;;;;;5030375;28;19929;-79
2023/05/08 00:12:55;;;;;;;;;;;14.50;99.90;;;;;;5030039;28;20422;-79
2023/05/08 00:15:22;;;;;;;;;;;14.50;99.90;;;;;;5030004;28;19995;-79
2023/05/08 00:17:51;;;;;;;;;;;14.50;99.90;;;;;;5024760;28;20319;-79
2023/05/08 00:20:18;;;;;;;;;;;14.40;99.90;;;;;;5028907;28;19925;-79
2023/05/08 00:22:44;;;;;;;;;;;14.40;99.90;;;;;;5032882;28;19964;-79
2023/05/08 00:25:11;;;;;;;;;;;14.40;99.90;;;;;;5026956;28;19925;-79
2023/05/08 00:27:40;;;;;;;;;;;14.50;99.90;;;;;;5024711;28;19925;-78
2023/05/08 00:30:08;;;;;;;;;;;14.40;99.90;;;;;;5043230;28;20059;-80
2023/05/08 00:32:34;;;;;;;;;;;14.40;99.90;;;;;;5026994;28;19988;-78
2023/05/08 00:35:03;;;;;;;;;;;14.40;99.90;;;;;;5025000;28;19933;-79
2023/05/08 00:37:30;;;;;;;;;;;14.40;99.90;;;;;;5027598;28;19935;-79
2023/05/08 00:39:58;;;;;;;;;;;14.40;99.90;;;;;;5031735;28;19932;-79
2023/05/08 00:42:25;;;;;;;;;;;14.40;99.90;;;;;;5028492;28;20026;-78
2023/05/08 00:44:52;;;;;;;;;;;14.40;99.90;;;;;;5026120;28;19925;-78
2023/05/08 00:47:20;;;;;;;;;;;14.40;99.90;;;;;;5027366;28;19929;-79
2023/05/08 00:49:47;;;;;;;;;;;14.30;99.90;;;;;;5028959;28;19929;-79
2023/05/08 00:52:16;;;;;;;;;;;14.30;99.90;;;;;;5021747;28;19936;-81
2023/05/08 00:54:43;;;;;;;;;;;14.30;99.90;;;;;;5028504;28;19948;-79
2023/05/08 00:57:10;;;;;;;;;;;14.30;99.90;;;;;;5038576;28;21486;-79
2023/05/08 00:59:37;;;;;;;;;;;14.30;99.90;;;;;;5026365;28;19925;-79
2023/05/08 01:02:04;;;;;;;;;;;14.30;99.90;;;;;;5021373;28;19952;-79
2023/05/08 01:04:33;;;;;;;;;;;14.30;99.90;;;;;;5043056;28;19933;-79
2023/05/08 01:07:01;;;;;;;;;;;14.30;99.90;;;;;;5026305;28;19940;-79
2023/05/08 01:09:29;;;;;;;;;;;14.30;99.90;;;;;;5024694;28;20323;-79
2023/05/08 01:12:02;;;;;;;;;;;14.30;99.90;;;;;;5025825;28;19929;-79
2023/05/08 01:14:32;;;;;;;;;;;14.30;99.90;;;;;;5045405;28;20584;-79
2023/05/08 01:17:04;;;;;;;;;;;14.30;99.90;;;;;;5022023;28;19925;-79
2023/05/08 01:19:53;;;;;;;;;;;14.30;99.90;;;;;;5031048;28;19955;-78
2023/05/08 01:22:24;;;;;;;;;;;14.20;99.90;;;;;;5024360;28;19929;-79
2023/05/08 01:25:11;;;;;;;;;;;14.20;99.90;;;;;;5034484;28;19925;-78
2023/05/08 01:27:54;;;;;;;;;;;14.20;99.90;;;;;;5015178;28;19936;-79
2023/05/08 01:30:40;;;;;;;;;;;14.20;99.90;;;;;;5040494;28;19936;-79
2023/05/08 01:33:13;;;;;;;;;;;14.20;99.90;;;;;;5023907;28;19929;-79
2023/05/08 01:35:43;;;;;;;;;;;14.20;99.90;;;;;;5028180;28;19948;-79
2023/05/08 01:38:14;;;;;;;;;;;14.20;99.90;;;;;;5031307;28;19979;-79
2023/05/08 01:40:46;;;;;;;;;;;14.20;99.90;;;;;;5021664;28;20334;-79
2023/05/08 01:43:18;;;;;;;;;;;14.20;99.90;;;;;;5050960;28;20284;-79
2023/05/08 01:45:48;;;;;;;;;;;14.20;99.90;;;;;;5025512;28;20441;-79
2023/05/08 01:48:19;;;;;;;;;;;14.20;99.90;;;;;;5024472;28;19931;-79
2023/05/08 01:50:47;;;;;;;;;;;14.20;99.90;;;;;;5043860;28;20288;-78
2023/05/08 01:53:22;;;;;;;;;;;14.20;99.90;;;;;;5037378;28;20383;-79
2023/05/08 01:55:50;;;;;;;;;;;14.20;99.90;;;;;;5022988;28;19979;-78
2023/05/08 01:58:18;;;;;;;;;;;14.10;99.90;;;;;;5027985;28;19926;-79
2023/05/08 02:00:45;;;;;;;;;;;14.10;99.90;;;;;;5026093;28;20422;-79
2023/05/08 02:03:14;;;;;;;;;;;14.10;99.90;;;;;;5038267;28;19925;-79
2023/05/08 02:05:43;;;;;;;;;;;14.10;99.90;;;;;;5041691;28;19968;-79
2023/05/08 02:08:12;;;;;;;;;;;14.10;99.90;;;;;;5039825;28;19925;-79
2023/05/08 02:10:40;;;;;;;;;;;14.20;99.90;;;;;;5026271;28;19932;-79
2023/05/08 02:13:07;;;;;;;;;;;14.10;99.90;;;;;;5021607;28;19925;-79
2023/05/08 02:15:35;;;;;;;;;;;14.10;99.90;;;;;;5028372;28;19929;-79
2023/05/08 02:18:03;;;;;;;;;;;14.10;99.90;;;;;;5022793;28;19964;-79
2023/05/08 02:20:31;;;;;;;;;;;14.10;99.90;;;;;;5021498;28;19929;-79
2023/05/08 02:23:00;;;;;;;;;;;14.10;99.90;;;;;;5045866;28;19968;-79
2023/05/08 02:25:28;;;;;;;;;;;14.10;99.90;;;;;;5028860;28;19943;-79
2023/05/08 02:27:58;;;;;;;;;;;14.10;99.90;;;;;;5025064;28;20398;-79
2023/05/08 02:30:25;;;;;;;;;;;14.10;99.90;;;;;;5042797;28;20015;-79
2023/05/08 02:32:53;;;;;;;;;;;14.00;99.90;;;;;;5043575;28;19925;-79
2023/05/08 02:35:21;;;;;;;;;;;14.10;99.90;;;;;;5022747;28;19952;-79
2023/05/08 02:37:51;;;;;;;;;;;14.00;99.90;;;;;;5042609;28;19935;-80
2023/05/08 02:40:21;;;;;;;;;;;14.00;99.90;;;;;;5023319;28;20036;-79
2023/05/08 02:42:48;;;;;;;;;;;14.10;99.90;;;;;;5042248;28;20048;-79
2023/05/08 02:45:16;;;;;;;;;;;14.00;99.90;;;;;;5024813;28;20016;-79
2023/05/08 02:47:46;;;;;;;;;;;14.00;99.90;;;;;;5023999;28;19936;-79
2023/05/08 02:50:17;;;;;;;;;;;14.00;99.90;;;;;;5026366;28;19932;-79
2023/05/08 02:52:45;;;;;;;;;;;14.00;99.90;;;;;;5041879;28;19925;-78
2023/05/08 02:55:21;;;;;;;;;;;14.00;99.90;;;;;;5025721;28;19925;-79
2023/05/08 02:57:53;;;;;;;;;;;14.00;99.90;;;;;;5019341;28;19925;-78
2023/05/08 03:00:22;;;;;;;;;;;14.00;99.90;;;;;;5025392;28;19929;-79
2023/05/08 03:02:51;;;;;;;;;;;14.00;99.90;;;;;;5028487;28;19925;-79
2023/05/08 03:05:24;;;;;;;;;;;14.00;99.90;;;;;;5035311;28;19932;-79
2023/05/08 03:07:54;;;;;;;;;;;14.00;99.90;;;;;;5042080;28;20006;-79
2023/05/08 03:10:25;;;;;;;;;;;14.00;99.90;;;;;;5018425;28;20039;-79
2023/05/08 03:12:54;;;;;;;;;;;14.00;99.90;;;;;;5026291;28;19984;-79
2023/05/08 03:15:23;;;;;;;;;;;14.00;99.90;;;;;;5038660;28;19967;-79
2023/05/08 03:17:52;;;;;;;;;;;14.00;99.90;;;;;;5022279;28;19925;-78
2023/05/08 03:20:20;;;;;;;;;;;13.90;99.90;;;;;;5024205;28;19995;-79
2023/05/08 03:22:48;;;;;;;;;;;13.90;99.90;;;;;;5039231;28;19994;-79
2023/05/08 03:25:18;;;;;;;;;;;13.90;99.90;;;;;;5038667;28;20314;-79
2023/05/08 03:27:46;;;;;;;;;;;13.90;99.90;;;;;;5022361;28;19956;-79
2023/05/08 03:30:15;;;;;;;;;;;13.90;99.90;;;;;;5021030;28;19926;-79
2023/05/08 03:32:45;;;;;;;;;;;13.90;99.90;;;;;;5020849;28;19960;-79
2023/05/08 03:35:13;;;;;;;;;;;13.90;99.90;;;;;;5040248;28;19939;-79
2023/05/08 03:37:40;;;;;;;;;;;13.90;99.90;;;;;;5022847;28;19925;-79
2023/05/08 03:40:08;;;;;;;;;;;13.90;99.90;;;;;;5036812;28;19971;-79
2023/05/08 03:42:35;;;;;;;;;;;13.90;99.90;;;;;;5040453;28;19932;-79
2023/05/08 03:45:03;;;;;;;;;;;13.90;99.90;;;;;;5027710;28;19935;-79
2023/05/08 03:47:32;;;;;;;;;;;13.90;99.90;;;;;;5027092;28;19925;-79
2023/05/08 03:49:58;;;;;;;;;;;13.90;99.90;;;;;;5037692;28;19936;-79
2023/05/08 03:52:26;;;;;;;;;;;13.90;99.90;;;;;;5027396;28;19939;-79
2023/05/08 03:54:52;;;;;;;;;;;13.90;99.90;;;;;;5038193;28;20595;-79
2023/05/08 03:57:19;;;;;;;;;;;13.90;99.90;;;;;;5027352;28;20011;-79
2023/05/08 03:59:50;;;;;;;;;;;13.90;99.90;;;;;;5027884;28;19932;-79
2023/05/08 04:02:21;;;;;;;;;;;13.90;99.90;;;;;;5024214;28;20143;-79
2023/05/08 04:04:55;;;;;;;;;;;13.90;99.90;;;;;;5031182;28;19924;-79
2023/05/08 04:07:27;;;;;;;;;;;13.80;99.90;;;;;;5028821;28;19940;-78
2023/05/08 04:09:58;;;;;;;;;;;13.80;99.90;;;;;;5034198;28;19925;-78
2023/05/08 04:12:28;;;;;;;;;;;13.90;99.90;;;;;;5043611;28;19932;-78
2023/05/08 04:14:55;;;;;;;;;;;13.90;99.90;;;;;;5042623;28;19929;-78
2023/05/08 04:17:27;;;;;;;;;;;13.90;99.90;;;;;;5030813;28;19929;-78
2023/05/08 04:19:58;;;;;;;;;;;13.80;99.90;;;;;;5042381;28;19925;-77
2023/05/08 04:22:26;;;;;;;;;;;13.80;99.90;;;;;;5025932;28;19925;-77
2023/05/08 04:24:54;;;;;;;;;;;13.90;99.90;;;;;;5033085;28;19925;-77
2023/05/08 04:27:22;;;;;;;;;;;13.90;99.90;;;;;;5034740;28;22328;-76
2023/05/08 04:29:49;;;;;;;;;;;13.90;99.90;;;;;;5028736;28;20430;-76
2023/05/08 04:32:16;;;;;;;;;;;13.80;99.90;;;;;;5033591;28;19933;-75
2023/05/08 04:34:45;;;;;;;;;;;13.90;99.90;;;;;;5026424;28;19929;-75
2023/05/08 04:37:24;;;;;;;;;;;13.80;99.90;;;;;;5021497;28;19933;-76
2023/05/08 04:39:51;;;;;;;;;;;13.80;99.90;;;;;;5037483;28;19925;-76
2023/05/08 04:42:21;;;;;;;;;;;13.80;99.90;;;;;;5041274;28;19983;-76
2023/05/08 04:44:48;;;;;;;;;;;13.80;99.90;;;;;;5025371;28;19933;-73
2023/05/08 04:47:15;;;;;;;;;;;13.80;99.90;;;;;;5031852;28;20028;-76
2023/05/08 04:49:42;;;;;;;;;;;13.80;99.90;;;;;;5040682;28;20019;-77
2023/05/08 04:52:09;;;;;;;;;;;13.80;99.90;;;;;;5024819;28;19929;-77
2023/05/08 04:54:40;;;;;;;;;;;13.80;99.90;;;;;;5038635;28;19933;-77
2023/05/08 04:57:07;;;;;;;;;;;13.80;99.90;;;;;;5027751;28;19987;-76
2023/05/08 04:59:37;;;;;;;;;;;13.80;99.90;;;;;;5023354;28;19937;-78
2023/05/08 05:02:06;;;;;;;;;;;13.80;99.90;;;;;;5022253;28;19925;-75
2023/05/08 05:04:34;;;;;;;;;;;13.80;99.90;;;;;;5033770;28;19943;-78
2023/05/08 05:07:01;;;;;;;;;;;13.80;99.90;;;;;;5019604;28;19972;-76
2023/05/08 05:09:28;;;;;;;;;;;13.80;99.90;;;;;;5037340;28;19926;-77
2023/05/08 05:11:57;;;;;;;;;;;13.80;99.90;;;;;;5035889;28;20295;-78
2023/05/08 05:14:23;;;;;;;;;;;13.80;99.90;;;;;;5017622;28;19952;-77
2023/05/08 05:16:50;;;;;;;;;;;13.80;99.90;;;;;;5038431;28;19932;-77
2023/05/08 05:19:17;;;;;;;;;;;13.80;99.90;;;;;;5016463;28;19933;-79
2023/05/08 05:21:49;;;;;;;;;;;13.80;99.90;;;;;;5039151;28;20104;-79
2023/05/08 05:24:16;;;;;;;;;;;13.80;99.90;;;;;;5014976;28;19943;-79
2023/05/08 05:26:45;;;;;;;;;;;13.80;99.90;;;;;;5024060;28;19975;-79
2023/05/08 05:29:13;;;;;;;;;;;13.80;99.90;;;;;;5023756;28;19925;-79
2023/05/08 05:31:40;;;;;;;;;;;13.80;99.90;;;;;;5025094;28;19934;-79
2023/05/08 05:34:07;;;;;;;;;;;13.80;99.90;;;;;;5021788;28;19983;-78
2023/05/08 05:36:35;;;;;;;;;;;13.80;99.90;;;;;;5032345;28;20027;-78
2023/05/08 05:39:03;;;;;;;;;;;13.80;99.90;;;;;;5027394;28;19932;-79
2023/05/08 05:41:30;;;;;;;;;;;13.80;99.90;;;;;;5045695;28;19925;-79
2023/05/08 05:43:58;;;;;;;;;;;13.80;99.90;;;;;;5035590;28;19958;-78
2023/05/08 05:46:31;;;;;;;;;;;13.80;99.90;;;;;;5028702;28;19964;-79
2023/05/08 05:48:58;;;;;;;;;;;13.80;99.90;;;;;;5026320;28;20013;-79
2023/05/08 05:51:26;;;;;;;;;;;13.80;99.90;;;;;;5022822;28;19933;-79
2023/05/08 05:53:53;;;;;;;;;;;13.80;99.90;;;;;;5030718;28;20019;-79
2023/05/08 05:56:22;;;;;;;;;;;13.80;99.90;;;;;;5025626;28;19980;-78
2023/05/08 05:58:49;;;;;;;;;;;13.80;99.90;;;;;;5043610;28;19975;-79
2023/05/08 06:01:16;;;;;;;;;;;13.80;99.90;;;;;;5024561;28;19925;-79
2023/05/08 06:03:44;;;;;;;;;;;13.70;99.90;;;;;;5030019;28;19929;-78
2023/05/08 06:06:13;;;;;;;;;;;13.70;99.90;;;;;;5036129;28;19925;-79
2023/05/08 06:08:40;;;;;;;;;;;13.70;99.90;;;;;;5038144;28;19925;-79
2023/05/08 06:11:07;;;;;;;;;;;13.70;99.90;;;;;;5027629;28;19932;-78
2023/05/08 06:13:34;;;;;;;;;;;13.80;99.90;;;;;;5029421;28;20039;-78
2023/05/08 06:16:02;;;;;;;;;;;13.70;99.90;;;;;;5025618;28;19936;-79
2023/05/08 06:18:33;;;;;;;;;;;13.70;99.90;;;;;;5045387;28;20011;-79
2023/05/08 06:21:01;;;;;;;;;;;13.70;99.90;;;;;;5027255;28;20012;-79
2023/05/08 06:23:28;;;;;;;;;;;13.70;99.90;;;;;;5037794;28;19928;-79
2023/05/08 06:25:55;;;;;;;;;;;13.70;99.90;;;;;;5025556;28;19960;-79
2023/05/08 06:28:24;;;;;;;;;;;13.70;99.90;;;;;;5030748;28;20007;-79
2023/05/08 06:30:51;;;;;;;;;;;13.70;99.90;;;;;;5027756;28;20284;-79
2023/05/08 06:33:18;;;;;;;;;;;13.70;99.90;;;;;;5024766;28;19936;-79
2023/05/08 06:35:46;;;;;;;;;;;13.70;99.90;;;;;;5026406;28;19926;-78
2023/05/08 06:38:14;;;;;;;;;;;13.80;99.90;;;;;;5028773;28;19925;-79
2023/05/08 06:40:42;;;;;;;;;;;13.70;99.90;;;;;;5025941;28;19933;-79
2023/05/08 06:43:09;;;;;;;;;;;13.70;99.90;;;;;;5026450;28;20350;-79
2023/05/08 06:45:36;;;;;;;;;;;13.70;99.90;;;;;;5023890;28;19940;-79
2023/05/08 06:48:03;;;;;;;;;;;13.70;99.90;;;;;;5030999;28;19985;-79
2023/05/08 06:50:30;;;;;;;;;;;13.70;99.90;;;;;;5021836;28;19933;-79
2023/05/08 06:52:59;;;;;;;;;;;13.70;99.90;;;;;;5025908;28;19932;-79
2023/05/08 06:55:27;;;;;;;;;;;13.70;99.90;;;;;;5027155;28;19925;-79
2023/05/08 06:57:54;;;;;;;;;;;13.70;99.90;;;;;;5025631;28;19955;-78
2023/05/08 07:00:21;;;;;;;;;;;13.70;99.90;;;;;;5025079;28;20391;-78
2023/05/08 07:02:48;;;;;;;;;;;13.70;99.90;;;;;;5029190;28;20396;-79
2023/05/08 07:05:16;;;;;;;;;;;13.70;99.90;;;;;;5027666;28;19955;-79
2023/05/08 07:07:43;;;;;;;;;;;13.70;99.90;;;;;;5021352;28;20488;-79
2023/05/08 07:10:10;;;;;;;;;;;13.70;99.90;;;;;;5030260;28;19952;-78
2023/05/08 07:12:39;;;;;;;;;;;13.70;99.90;;;;;;5025746;28;20279;-78
2023/05/08 07:15:07;;;;;;;;;;;13.70;99.90;;;;;;5030631;28;19925;-79
2023/05/08 07:17:36;;;;;;;;;;;13.70;99.90;;;;;;5043610;28;20395;-79
2023/05/08 07:20:04;;;;;;;;;;;13.70;99.90;;;;;;5032985;28;20463;-79
2023/05/08 07:22:31;;;;;;;;;;;13.70;99.90;;;;;;5042170;28;19937;-78
2023/05/08 07:24:59;;;;;;;;;;;13.70;99.90;;;;;;5024487;28;19929;-79
2023/05/08 07:27:28;;;;;;;;;;;13.70;99.90;;;;;;5041862;28;20101;-78
2023/05/08 07:30:02;;;;;;;;;;;13.70;99.90;;;;;;5026605;28;19929;-78
2023/05/08 07:32:30;;;;;;;;;;;13.70;99.90;;;;;;5036795;28;19926;-78
2023/05/08 07:34:57;;;;;;;;;;;13.70;99.90;;;;;;5045313;28;19933;-78
2023/05/08 07:37:24;;;;;;;;;;;13.70;99.90;;;;;;5033783;28;19929;-78
2023/05/08 07:39:51;;;;;;;;;;;13.70;99.90;;;;;;5048826;28;19929;-78
2023/05/08 07:42:18;;;;;;;;;;;13.70;99.90;;;;;;5029829;28;20170;-76
2023/05/08 07:44:45;;;;;;;;;;;13.70;99.90;;;;;;5032152;28;20423;-76
2023/05/08 07:47:13;;;;;;;;;;;13.70;99.90;;;;;;5030421;28;19925;-77
2023/05/08 07:49:40;;;;;;;;;;;13.70;99.90;;;;;;5029966;28;19925;-77
2023/05/08 07:52:07;;;;;;;;;;;13.70;99.90;;;;;;5029147;28;19925;-77
2023/05/08 07:54:34;;;;;;;;;;;13.70;99.90;;;;;;5030329;28;19925;-77
2023/05/08 07:57:01;;;;;;;;;;;13.70;99.90;;;;;;5030878;28;20003;-77
2023/05/08 07:59:28;;;;;;;;;;;13.70;99.90;;;;;;5027110;28;20284;-78
2023/05/08 08:01:55;;;;;;;;;;;13.70;99.90;;;;;;5047461;28;20511;-78
2023/05/08 08:04:23;;;;;;;;;;;13.70;99.90;;;;;;5028971;28;20028;-79
2023/05/08 08:06:50;;;;;;;;;;;13.70;99.90;;;;;;5028365;28;20449;-78
2023/05/08 08:09:17;;;;;;;;;;;13.70;99.90;;;;;;5031706;28;19987;-78
2023/05/08 08:11:44;;;;;;;;;;;13.70;99.90;;;;;;5031110;28;19931;-78
2023/05/08 08:14:11;;;;;;;;;;;13.70;99.90;;;;;;5027398;28;19936;-78
2023/05/08 08:16:38;;;;;;;;;;;13.70;99.90;;;;;;5032424;28;20334;-78
2023/05/08 08:19:05;;;;;;;;;;;13.70;99.90;;;;;;5039365;28;20302;-79
2023/05/08 08:21:34;;;;;;;;;;;13.70;99.90;;;;;;5032007;28;19933;-79
2023/05/08 08:24:01;;;;;;;;;;;13.70;99.90;;;;;;5027750;28;19937;-78
2023/05/08 08:26:28;;;;;;;;;;;13.70;99.90;;;;;;5028768;28;19925;-78
2023/05/08 08:28:55;;;;;;;;;;;13.70;99.90;;;;;;5027432;28;20031;-78
2023/05/08 08:31:22;;;;;;;;;;;13.70;99.90;;;;;;5043700;28;19951;-78
2023/05/08 08:33:49;;;;;;;;;;;13.70;99.90;;;;;;5027733;28;19925;-79
2023/05/08 08:36:16;;;;;;;;;;;13.70;99.90;;;;;;5028315;28;19925;-79
2023/05/08 08:38:44;;;;;;;;;;;13.80;99.90;;;;;;5030552;28;19929;-78
2023/05/08 08:41:13;;;;;;;;;;;13.80;99.90;;;;;;5037384;28;19929;-79
2023/05/08 08:43:42;;;;;;;;;;;13.80;99.90;;;;;;5031250;28;19936;-78
2023/05/08 08:46:10;;;;;;;;;;;13.80;99.90;;;;;;5043461;28;20395;-78
2023/05/08 08:48:38;;;;;;;;;;;13.80;99.90;;;;;;5030386;28;19932;-78
2023/05/08 08:51:06;;;;;;;;;;;13.80;99.90;;;;;;5027135;28;19929;-78
2023/05/08 08:53:35;;;;;;;;;;;13.80;99.90;;;;;;5029458;28;20063;-78
2023/05/08 08:56:05;;;;;;;;;;;13.80;99.90;;;;;;5029859;28;19929;-78
2023/05/08 08:58:33;;;;;;;;;;;13.80;99.90;;;;;;5027200;28;19936;-78
2023/05/08 09:01:02;;;;;;;;;;;13.80;99.90;;;;;;5044448;28;19925;-78
2023/05/08 09:03:30;;;;;;;;;;;13.80;99.90;;;;;;5043494;28;20035;-78
2023/05/08 09:06:02;;;;;;;;;;;13.80;99.90;;;;;;5031526;28;19971;-79
2023/05/08 09:08:29;;;;;;;;;;;13.80;99.90;;;;;;5022074;28;19926;-78
2023/05/08 09:10:57;;;;;;;;;;;13.80;99.90;;;;;;5032819;28;19968;-78
2023/05/08 09:13:25;;;;;;;;;;;13.80;99.90;;;;;;5027153;28;19935;-78
2023/05/08 09:15:52;;;;;;;;;;;13.80;99.90;;;;;;5031640;28;20008;-78
2023/05/08 09:18:19;;;;;;;;;;;13.90;99.90;;;;;;5017357;28;20107;-78
2023/05/08 09:20:46;;;;;;;;;;;13.90;99.90;;;;;;5035656;28;19925;-78
2023/05/08 09:23:16;;;;;;;;;;;13.90;99.90;;;;;;5026648;28;20042;-78
2023/05/08 09:25:43;;;;;;;;;;;13.90;99.90;;;;;;5025752;28;19933;-78
2023/05/08 09:28:16;;;;;;;;;;;13.90;99.90;;;;;;5027498;28;19932;-78
2023/05/08 09:30:52;;;;;;;;;;;13.90;99.90;;;;;;5041096;28;19961;-79
2023/05/08 09:33:20;;;;;;;;;;;13.90;99.90;;;;;;5027310;28;20407;-79
2023/05/08 09:35:48;;;;;;;;;;;13.90;99.90;;;;;;5028716;28;20418;-77
2023/05/08 09:38:34;;;;;;;;;;;13.90;99.90;;;;;;5023107;28;20008;-77
2023/05/08 09:41:08;;;;;;;;;;;13.90;99.90;;;;;;5031731;28;19968;-76
2023/05/08 09:43:35;;;;;;;;;;;13.90;99.90;;;;;;5023632;28;20673;-76
2023/05/08 09:46:21;;;;;;;;;;;13.90;99.90;;;;;;5029201;28;19929;-76
2023/05/08 09:48:49;;;;;;;;;;;13.90;99.90;;;;;;5033857;28;19932;-77
2023/05/08 09:51:16;;;;;;;;;;;13.90;99.90;;;;;;5027557;28;19976;-76
2023/05/08 09:53:45;;;;;;;;;;;14.00;99.90;;;;;;5018942;28;20382;-76
2023/05/08 09:56:12;;;;;;;;;;;14.00;99.90;;;;;;5026171;28;20312;-76
2023/05/08 09:58:40;;;;;;;;;;;14.00;99.90;;;;;;5032830;28;19925;-77
2023/05/08 10:01:06;;;;;;;;;;;14.00;99.90;;;;;;5030750;28;19925;-77
2023/05/08 10:03:46;;;;;;;;;;;14.00;99.90;;;;;;5027901;28;19935;-77
2023/05/08 10:06:15;;;;;;;;;;;14.00;99.90;;;;;;5026345;28;19926;-76
2023/05/08 10:08:42;;;;;;;;;;;14.00;99.90;;;;;;5026215;28;19929;-78
2023/05/08 10:11:15;;;;;;;;;;;14.00;99.90;;;;;;5020347;28;20014;-77
2023/05/08 10:13:43;;;;;;;;;;;14.00;99.90;;;;;;5029993;28;20643;-76
2023/05/08 10:16:13;;;;;;;;;;;14.00;99.90;;;;;;5039970;28;19932;-76
2023/05/08 10:18:42;;;;;;;;;;;14.00;99.90;;;;;;5030403;28;19932;-76
2023/05/08 10:21:12;;;;;;;;;;;14.00;99.90;;;;;;5027863;28;19975;-77
2023/05/08 10:23:42;;;;;;;;;;;14.00;99.90;;;;;;5030488;28;19979;-76
2023/05/08 10:26:12;;;;;;;;;;;14.00;99.90;;;;;;5024627;28;19926;-76
2023/05/08 10:28:40;;;;;;;;;;;14.00;99.90;;;;;;5006368;28;19932;-79
2023/05/08 10:31:09;;;;;;;;;;;14.00;99.90;;;;;;5023883;28;19939;-80
2023/05/08 10:33:40;;;;;;;;;;;14.10;99.90;;;;;;5034039;28;19940;-78
2023/05/08 10:36:08;;;;;;;;;;;14.10;99.90;;;;;;5030189;28;19925;-78
2023/05/08 10:38:36;;;;;;;;;;;14.10;99.90;;;;;;5007803;28;20680;-78
2023/05/08 10:41:08;;;;;;;;;;;14.10;99.90;;;;;;5024426;28;20414;-78
2023/05/08 10:43:36;;;;;;;;;;;14.10;99.90;;;;;;5029612;28;19933;-78
2023/05/08 10:46:21;;;;;;;;;;;14.10;99.90;;;;;;5025159;28;20640;-78
2023/05/08 10:48:51;;;;;;;;;;;14.10;99.90;;;;;;5017439;28;20381;-79
2023/05/08 10:51:21;;;;;;;;;;;14.10;99.90;;;;;;5038670;28;20328;-78
2023/05/08 10:53:51;;;;;;;;;;;14.10;99.90;;;;;;5021215;28;20008;-78
2023/05/08 10:56:25;;;;;;;;;;;14.10;99.90;;;;;;5020114;28;20420;-79
2023/05/08 10:58:55;;;;;;;;;;;14.20;99.90;;;;;;5023279;28;19929;-78
2023/05/08 11:01:22;;;;;;;;;;;14.20;99.90;;;;;;5024625;28;19929;-78
2023/05/08 11:03:53;;;;;;;;;;;14.20;99.90;;;;;;5040632;28;19933;-78
2023/05/08 11:06:35;;;;;;;;;;;14.20;99.90;;;;;;5030193;28;20478;-78
2023/05/08 11:09:04;;;;;;;;;;;14.20;99.90;;;;;;5030158;28;19925;-79
2023/05/08 11:11:44;;;;;;;;;;;14.20;99.90;;;;;;5028018;28;19948;-78
2023/05/08 11:14:13;;;;;;;;;;;14.20;99.90;;;;;;5031290;28;19954;-78
2023/05/08 11:16:59;;;;;;;;;;;14.20;99.90;;;;;;5023065;28;19925;-79
2023/05/08 11:19:26;;;;;;;;;;;14.20;99.90;;;;;;5035635;28;20339;-79
2023/05/08 11:22:12;;;;;;;;;;;14.20;99.90;;;;;;5029475;28;19929;-78
2023/05/08 11:24:40;;;;;;;;;;;14.20;99.90;;;;;;5025472;28;20015;-78
2023/05/08 11:27:08;;;;;;;;;;;14.20;99.90;;;;;;5026757;28;19925;-78
2023/05/08 11:29:36;;;;;;;;;;;14.20;99.90;;;;;;5030346;28;19972;-78
2023/05/08 11:32:03;;;;;;;;;;;14.20;99.90;;;;;;5029280;28;19936;-78
2023/05/08 11:34:46;;;;;;;;;;;14.30;99.90;;;;;;5021175;28;19948;-78
2023/05/08 11:37:16;;;;;;;;;;;14.30;99.90;;;;;;5029832;28;19929;-78
2023/05/08 11:39:44;;;;;;;;;;;14.30;99.90;;;;;;5027278;28;20291;-79
2023/05/08 11:42:29;;;;;;;;;;;14.30;99.90;;;;;;5026243;28;20352;-78
2023/05/08 11:45:03;;;;;;;;;;;14.30;99.90;;;;;;5027554;28;19948;-78
2023/05/08 11:47:32;;;;;;;;;;;14.30;99.90;;;;;;5027609;28;19925;-78
2023/05/08 11:49:59;;;;;;;;;;;14.30;99.90;;;;;;5026450;28;20071;-77
2023/05/08 11:52:26;;;;;;;;;;;14.30;99.90;;;;;;5021894;28;20024;-78
2023/05/08 11:54:53;;;;;;;;;;;14.30;99.90;;;;;;5030093;28;20105;-77
2023/05/08 11:57:21;;;;;;;;;;;14.30;99.90;;;;;;5026549;28;20383;-78
2023/05/08 11:59:49;;;;;;;;;;;14.30;99.90;;;;;;5023013;28;19932;-78
2023/05/08 12:02:21;;;;;;;;;;;14.30;99.90;;;;;;5028128;28;20004;-78
2023/05/08 12:04:48;;;;;;;;;;;14.40;99.90;;;;;;5028933;28;19991;-78
2023/05/08 12:07:15;;;;;;;;;;;14.40;99.90;;;;;;5038458;28;19929;-78
2023/05/08 12:09:51;;;;;;;;;;;14.40;99.90;;;;;;5028369;28;19925;-77
2023/05/08 12:12:20;;;;;;;;;;;14.30;99.90;;;;;;5023462;28;19984;-78
2023/05/08 12:14:49;;;;;;;;;;;14.40;99.90;;;;;;5038636;28;20380;-79
2023/05/08 12:17:18;;;;;;;;;;;14.40;99.90;;;;;;5027261;28;19933;-78
2023/05/08 12:19:45;;;;;;;;;;;14.40;99.90;;;;;;5048112;28;20410;-77
2023/05/08 12:22:12;;;;;;;;;;;14.40;99.90;;;;;;5029733;28;20019;-78
2023/05/08 12:24:45;;;;;;;;;;;14.40;99.90;;;;;;5040679;28;19936;-78
2023/05/08 12:27:14;;;;;;;;;;;14.40;99.90;;;;;;5024520;28;19933;-77
2023/05/08 12:29:44;;;;;;;;;;;14.40;99.90;;;;;;5027347;28;19932;-76
2023/05/08 12:32:11;;;;;;;;;;;14.40;99.90;;;;;;5024461;28;19925;-76
2023/05/08 12:34:43;;;;;;;;;;;14.40;99.90;;;;;;5029161;28;19976;-75
2023/05/08 12:37:10;;;;;;;;;;;14.40;99.90;;;;;;5022339;28;19933;-76
2023/05/08 12:39:37;;;;;;;;;;;14.40;99.90;;;;;;5026637;28;19975;-76
2023/05/08 12:42:10;;;;;;;;;;;14.40;99.90;;;;;;5026600;28;19971;-75
2023/05/08 12:44:37;;;;;;;;;;;14.40;99.90;;;;;;5023107;28;20353;-75
2023/05/08 12:47:08;;;;;;;;;;;14.40;99.90;;;;;;5024549;28;19971;-76
2023/05/08 12:49:39;;;;;;;;;;;14.40;99.90;;;;;;5027034;28;19964;-76
2023/05/08 12:52:08;;;;;;;;;;;14.40;99.90;;;;;;5016383;28;20393;-76
2023/05/08 12:54:38;;;;;;;;;;;14.40;99.90;;;;;;5028707;28;19925;-75
2023/05/08 12:57:11;;;;;;;;;;;14.40;99.90;;;;;;5025751;28;19934;-75
2023/05/08 12:59:38;;;;;;;;;;;14.40;99.90;;;;;;5021848;28;19945;-76
2023/05/08 13:02:11;;;;;;;;;;;14.40;99.90;;;;;;5027900;28;20000;-78
2023/05/08 13:06:03;;;;;;;;;;;14.50;99.90;;;;;;5096534;27;19924;-76
2023/05/08 13:08:33;;;;;;;;;;;14.60;99.90;;;;;;5057157;28;20725;-79
2023/05/08 13:11:01;;;;;;;;;;;14.60;99.90;;;;;;5063040;28;20356;-79
2023/05/08 13:13:30;;;;;;;;;;;14.50;99.90;;;;;;5064938;28;20302;-76
2023/05/08 13:15:57;;;;;;;;;;;14.50;99.90;;;;;;5058969;28;20318;-79
2023/05/08 13:18:26;;;;;;;;;;;14.50;99.90;;;;;;5062232;28;20284;-78
2023/05/08 13:21:00;;;;;;;;;;;14.50;99.90;;;;;;5060866;28;20007;-79
2023/05/08 13:23:27;;;;;;;;;;;14.60;99.90;;;;;;5062962;28;19940;-79
2023/05/08 13:25:55;;;;;;;;;;;14.60;99.90;;;;;;5057584;28;20005;-79
2023/05/08 13:28:22;;;;;;;;;;;14.50;99.90;;;;;;5067235;28;19935;-79
2023/05/08 13:30:51;;;;;;;;;;;14.50;99.90;;;;;;5063123;28;20306;-79
2023/05/08 13:33:21;;;;;;;;;;;14.60;99.90;;;;;;5059799;28;19960;-78
2023/05/08 13:35:48;;;;;;;;;;;14.60;99.90;;;;;;5057679;28;19924;-78
2023/05/08 13:38:16;;;;;;;;;;;14.60;99.90;;;;;;5065451;28;19932;-78
2023/05/08 13:40:43;;;;;;;;;;;14.60;99.90;;;;;;5069875;28;20389;-78
2023/05/08 13:43:12;;;;;;;;;;;14.60;99.90;;;;;;5063120;28;19952;-79
2023/05/08 13:45:39;;;;;;;;;;;14.60;99.90;;;;;;5067391;28;19925;-80
2023/05/08 13:48:06;;;;;;;;;;;14.70;99.90;;;;;;5052238;28;20367;-78
2023/05/08 13:50:33;;;;;;;;;;;14.70;99.90;;;;;;5057647;28;19925;-80
2023/05/08 13:53:00;;;;;;;;;;;14.70;99.90;;;;;;5056557;28;19949;-79
2023/05/08 13:55:31;;;;;;;;;;;14.70;99.90;;;;;;5056640;28;19925;-79
2023/05/08 13:57:58;;;;;;;;;;;14.70;99.90;;;;;;5057179;28;19952;-79
2023/05/08 14:00:25;;;;;;;;;;;14.70;99.90;;;;;;5058260;28;19933;-79
2023/05/08 14:02:53;;;;;;;;;;;14.70;99.90;;;;;;5073115;28;19925;-80
2023/05/08 14:05:20;;;;;;;;;;;14.70;99.90;;;;;;5079113;28;19946;-79
2023/05/08 14:07:47;;;;;;;;;;;14.80;99.90;;;;;;5086178;28;20007;-78
2023/05/08 14:10:15;;;;;;;;;;;14.80;99.90;;;;;;5081744;28;19928;-79
2023/05/08 14:12:45;;;;;;;;;;;14.80;99.90;;;;;;5080491;28;20550;-79
2023/05/08 14:15:12;;;;;;;;;;;14.80;99.90;;;;;;5084753;28;20010;-78
2023/05/08 14:17:39;;;;;;;;;;;14.80;99.90;;;;;;5087952;28;19931;-79
2023/05/08 14:20:06;;;;;;;;;;;14.80;99.90;;;;;;5067637;28;19933;-79
2023/05/08 14:22:33;;;;;;;;;;;14.80;99.90;;;;;;5071086;28;19964;-79
2023/05/08 14:25:00;;;;;;;;;;;14.80;99.90;;;;;;5068210;28;19943;-78
2023/05/08 14:27:27;;;;;;;;;;;14.80;99.90;;;;;;5064040;28;20503;-78